Time;durP1;ratioP1;P1;durP2;ratioP2;P2;SDS_P1;SDS_P2;PMS_P1;PMS_P2;Temp;Humidity;BMP_temperature;BMP_pressure;BME280_temperature;BME280_humidity;BME280_pressure;Samples;Min_cycle;Max_cycle;Signal;HPM_P1;HPM_P2
2022/07/22 00:00:22;;;;;;;0.93;0.73;;;23.20;53.00;;;;;;6193460;28;20092;-67
2022/07/22 00:03:22;;;;;;;0.70;0.70;;;23.20;53.10;;;;;;6181609;28;20030;-67
2022/07/22 00:06:23;;;;;;;1.15;0.80;;;23.20;53.10;;;;;;6169420;28;20351;-68
2022/07/22 00:09:24;;;;;;;0.70;0.70;;;23.20;53.10;;;;;;6188528;28;20030;-68
2022/07/22 00:12:25;;;;;;;1.05;0.70;;;23.20;53.10;;;;;;6190437;28;20025;-67
2022/07/22 00:15:25;;;;;;;0.63;0.63;;;23.20;53.10;;;;;;6169069;28;20201;-68
2022/07/22 00:18:26;;;;;;;1.15;0.90;;;23.20;53.10;;;;;;6192261;28;20504;-67
2022/07/22 00:21:27;;;;;;;0.80;0.80;;;23.20;53.10;;;;;;6193139;28;20149;-67
2022/07/22 00:24:27;;;;;;;0.98;0.80;;;23.20;53.10;;;;;;6175416;28;20081;-67
2022/07/22 00:27:28;;;;;;;0.60;0.60;;;23.20;53.10;;;;;;6170176;28;20102;-68
2022/07/22 00:30:29;;;;;;;0.70;0.70;;;23.20;53.10;;;;;;6192967;28;20441;-67
2022/07/22 00:33:29;;;;;;;0.80;0.80;;;23.20;53.10;;;;;;6175559;28;20113;-67
2022/07/22 00:36:30;;;;;;;0.73;0.70;;;23.20;53.10;;;;;;6193026;28;20026;-67
2022/07/22 00:39:31;;;;;;;0.85;0.82;;;23.20;53.10;;;;;;6188222;28;20051;-67
2022/07/22 00:42:33;;;;;;;0.60;0.60;;;23.20;53.10;;;;;;6168826;28;20489;-67
2022/07/22 00:45:34;;;;;;;1.00;0.80;;;23.20;53.10;;;;;;6169703;28;20030;-67
2022/07/22 00:48:35;;;;;;;0.73;0.73;;;23.20;53.10;;;;;;6185293;28;20049;-68
2022/07/22 00:51:39;;;;;;;0.70;0.70;;;23.20;53.10;;;;;;6168798;28;20019;-67
2022/07/22 00:54:39;;;;;;;1.08;0.98;;;23.20;53.10;;;;;;6184333;28;20038;-67
2022/07/22 00:57:40;;;;;;;0.70;0.70;;;23.20;53.10;;;;;;6192441;28;20113;-67
2022/07/22 01:00:41;;;;;;;0.77;0.77;;;23.20;53.10;;;;;;6192652;28;20033;-68
2022/07/22 01:03:42;;;;;;;0.70;0.70;;;23.20;53.10;;;;;;6176824;28;20026;-67
2022/07/22 01:06:44;;;;;;;0.80;0.80;;;23.20;53.10;;;;;;6192955;28;20015;-67
2022/07/22 01:09:45;;;;;;;1.02;0.90;;;23.20;53.10;;;;;;6178672;28;20482;-67
2022/07/22 01:12:46;;;;;;;0.80;0.80;;;23.20;53.10;;;;;;6170370;28;20031;-67
2022/07/22 01:15:47;;;;;;;1.23;0.70;;;23.20;53.10;;;;;;6194805;28;20085;-67
2022/07/22 01:18:48;;;;;;;0.98;0.68;;;23.20;53.10;;;;;;6191946;28;20075;-68
2022/07/22 01:21:48;;;;;;;0.85;0.80;;;23.20;53.10;;;;;;6173063;28;20027;-67
2022/07/22 01:24:49;;;;;;;0.88;0.80;;;23.20;53.20;;;;;;6185389;28;20030;-67
2022/07/22 01:27:50;;;;;;;0.70;0.70;;;23.20;53.10;;;;;;6197156;28;20045;-67
2022/07/22 01:30:50;;;;;;;1.17;0.88;;;23.20;53.20;;;;;;6189961;28;20524;-67
2022/07/22 01:33:51;;;;;;;1.00;0.90;;;23.20;53.20;;;;;;6176688;28;20642;-68
2022/07/22 01:36:51;;;;;;;0.80;0.80;;;23.20;53.20;;;;;;6196540;28;20584;-68
2022/07/22 01:39:52;;;;;;;1.10;0.85;;;23.20;53.20;;;;;;6193351;28;20397;-67
2022/07/22 01:42:53;;;;;;;0.75;0.73;;;23.20;53.20;;;;;;6196741;28;20076;-67
2022/07/22 01:45:54;;;;;;;1.42;0.93;;;23.20;53.20;;;;;;6178090;28;20019;-67
2022/07/22 01:48:55;;;;;;;1.55;0.90;;;23.20;53.20;;;;;;6173894;28;20054;-67
2022/07/22 01:51:56;;;;;;;0.60;0.60;;;23.20;53.20;;;;;;6195341;28;20169;-67
2022/07/22 01:54:56;;;;;;;0.80;0.80;;;23.20;53.20;;;;;;6196642;28;20162;-67
2022/07/22 01:57:57;;;;;;;0.80;0.80;;;23.20;53.20;;;;;;6196026;28;20026;-67
2022/07/22 02:00:58;;;;;;;1.20;0.90;;;23.20;53.20;;;;;;6195576;28;20044;-67
2022/07/22 02:03:59;;;;;;;0.70;0.70;;;23.20;53.20;;;;;;6195583;28;20034;-67
2022/07/22 02:07:00;;;;;;;1.13;1.00;;;23.20;53.20;;;;;;6172140;28;20029;-68
2022/07/22 02:10:00;;;;;;;0.80;0.80;;;23.20;53.20;;;;;;6180027;28;20037;-68
2022/07/22 02:13:01;;;;;;;0.90;0.80;;;23.20;53.30;;;;;;6196166;28;20389;-67
2022/07/22 02:16:02;;;;;;;1.20;0.80;;;23.20;53.20;;;;;;6180308;28;20031;-67
2022/07/22 02:19:03;;;;;;;1.10;0.90;;;23.20;53.20;;;;;;6171515;28;20045;-67
2022/07/22 02:22:03;;;;;;;0.80;0.80;;;23.20;53.30;;;;;;6194795;28;20080;-67
2022/07/22 02:25:04;;;;;;;1.00;0.90;;;23.20;53.20;;;;;;6189362;28;20106;-67
2022/07/22 02:28:05;;;;;;;1.23;0.93;;;23.20;53.30;;;;;;6171732;28;20038;-67
2022/07/22 02:31:05;;;;;;;1.10;0.93;;;23.20;53.30;;;;;;6185430;28;20493;-67
2022/07/22 02:34:06;;;;;;;2.22;1.10;;;23.20;53.30;;;;;;6195594;28;20030;-67
2022/07/22 02:37:07;;;;;;;1.45;0.82;;;23.20;53.30;;;;;;6173637;28;20031;-67
2022/07/22 02:40:08;;;;;;;0.98;0.77;;;23.20;53.30;;;;;;6176144;28;20420;-67
2022/07/22 02:43:08;;;;;;;0.90;0.80;;;23.20;54.00;;;;;;6171263;28;20023;-67
2022/07/22 02:46:09;;;;;;;1.52;1.00;;;23.20;53.30;;;;;;6183988;28;20073;-68
2022/07/22 02:49:09;;;;;;;1.95;0.93;;;23.20;53.30;;;;;;6195108;28;20116;-68
2022/07/22 02:52:10;;;;;;;1.55;1.00;;;23.20;53.30;;;;;;6175049;28;20485;-67
2022/07/22 02:55:11;;;;;;;1.05;0.95;;;23.20;53.30;;;;;;6186986;28;20061;-67
2022/07/22 02:58:12;;;;;;;1.00;0.88;;;23.20;53.30;;;;;;6194966;28;20133;-67
2022/07/22 03:01:12;;;;;;;1.17;0.73;;;23.20;53.30;;;;;;6184176;28;20031;-67
2022/07/22 03:04:13;;;;;;;1.20;0.90;;;23.20;53.30;;;;;;6170845;28;20027;-67
2022/07/22 03:07:14;;;;;;;1.05;0.82;;;23.20;53.40;;;;;;6189101;28;20539;-67
2022/07/22 03:10:14;;;;;;;1.20;1.00;;;23.20;53.30;;;;;;6192888;28;20112;-67
2022/07/22 03:13:15;;;;;;;1.10;1.00;;;23.20;53.30;;;;;;6170685;28;20532;-68
2022/07/22 03:16:15;;;;;;;1.10;1.00;;;23.20;53.40;;;;;;6179865;28;20030;-67
2022/07/22 03:19:16;;;;;;;1.15;1.02;;;23.20;53.40;;;;;;6194629;28;20031;-67
2022/07/22 03:22:17;;;;;;;1.10;1.00;;;23.20;53.30;;;;;;6173983;28;20038;-67
2022/07/22 03:25:18;;;;;;;0.88;0.88;;;23.20;53.40;;;;;;6194127;28;20030;-67
2022/07/22 03:28:19;;;;;;;1.00;1.00;;;23.20;53.40;;;;;;6194325;28;20473;-67
2022/07/22 03:31:19;;;;;;;1.40;1.10;;;23.20;53.40;;;;;;6186374;28;20501;-67
2022/07/22 03:34:20;;;;;;;1.10;1.00;;;23.20;53.40;;;;;;6170143;28;20026;-67
2022/07/22 03:37:20;;;;;;;1.20;1.10;;;23.20;53.40;;;;;;6184855;28;20405;-67
2022/07/22 03:40:21;;;;;;;1.27;1.10;;;23.20;53.40;;;;;;6182779;28;20106;-67
2022/07/22 03:43:22;;;;;;;1.40;1.10;;;23.20;53.40;;;;;;6192845;28;20106;-67
2022/07/22 03:46:22;;;;;;;1.05;0.95;;;23.20;53.40;;;;;;6187806;28;20023;-67
2022/07/22 03:49:23;;;;;;;1.02;0.95;;;23.20;53.40;;;;;;6169513;28;20047;-67
2022/07/22 03:52:25;;;;;;;2.10;1.15;;;23.20;53.40;;;;;;6183354;28;20030;-67
2022/07/22 03:55:25;;;;;;;1.25;1.10;;;23.20;53.40;;;;;;6194084;28;20031;-67
2022/07/22 03:58:27;;;;;;;1.13;1.02;;;23.20;53.40;;;;;;6193490;28;20042;-68
2022/07/22 04:01:28;;;;;;;1.15;1.00;;;23.20;53.40;;;;;;6193801;28;20018;-67
2022/07/22 04:04:28;;;;;;;1.00;0.90;;;23.20;53.40;;;;;;6192937;28;20084;-67
2022/07/22 04:07:29;;;;;;;1.10;1.00;;;23.20;53.50;;;;;;6181560;28;20092;-68
2022/07/22 04:10:30;;;;;;;1.27;1.08;;;23.20;54.10;;;;;;6169512;28;20031;-68
2022/07/22 04:13:30;;;;;;;1.00;0.90;;;23.20;53.40;;;;;;6189688;28;20649;-67
2022/07/22 04:16:31;;;;;;;0.90;0.90;;;23.20;53.50;;;;;;6189664;28;20497;-67
2022/07/22 04:19:32;;;;;;;1.17;1.05;;;23.20;53.50;;;;;;6169461;28;20023;-67
2022/07/22 04:22:32;;;;;;;1.30;1.00;;;23.20;53.50;;;;;;6179866;28;20031;-68
2022/07/22 04:25:33;;;;;;;1.30;1.10;;;23.20;53.50;;;;;;6193372;28;20026;-67
2022/07/22 04:28:34;;;;;;;1.13;1.02;;;23.20;53.50;;;;;;6193168;28;20019;-68
2022/07/22 04:31:35;;;;;;;1.10;1.00;;;23.20;53.50;;;;;;6182013;28;20073;-67
2022/07/22 04:34:36;;;;;;;1.13;1.02;;;23.20;53.50;;;;;;6192999;28;20031;-67
2022/07/22 04:37:37;;;;;;;1.00;0.90;;;23.20;53.50;;;;;;6183366;28;20038;-67
2022/07/22 04:40:37;;;;;;;1.50;1.00;;;23.20;53.50;;;;;;6182121;28;20489;-67
2022/07/22 04:43:38;;;;;;;1.13;1.00;;;23.20;53.50;;;;;;6175522;28;20029;-67
2022/07/22 04:46:38;;;;;;;1.10;1.00;;;23.20;53.50;;;;;;6168389;28;20690;-67
2022/07/22 04:49:39;;;;;;;1.50;1.13;;;23.20;53.50;;;;;;6197179;28;20090;-67
2022/07/22 04:52:40;;;;;;;1.13;1.02;;;23.20;53.50;;;;;;6189876;28;20643;-68
2022/07/22 04:55:40;;;;;;;1.60;1.35;;;23.20;53.50;;;;;;6194637;28;20077;-68
2022/07/22 04:58:41;;;;;;;1.08;0.98;;;23.20;53.50;;;;;;6197860;28;20655;-68
2022/07/22 05:01:41;;;;;;;1.20;1.10;;;23.20;53.50;;;;;;6197350;28;20038;-69
2022/07/22 05:04:42;;;;;;;1.30;1.20;;;23.20;53.60;;;;;;6197697;28;20027;-68
2022/07/22 05:07:43;;;;;;;1.67;1.40;;;23.20;53.50;;;;;;6198031;28;20030;-69
2022/07/22 05:10:43;;;;;;;0.90;0.90;;;23.20;53.50;;;;;;6197777;28;20791;-68
2022/07/22 05:13:44;;;;;;;1.73;1.20;;;23.20;53.50;;;;;;6184119;28;20027;-68
2022/07/22 05:16:45;;;;;;;1.10;1.00;;;23.20;53.50;;;;;;6173336;28;20097;-67
2022/07/22 05:19:45;;;;;;;1.15;1.05;;;23.20;53.50;;;;;;6194486;28;20119;-68
2022/07/22 05:22:46;;;;;;;1.27;1.13;;;23.20;53.50;;;;;;6187366;28;20026;-68
2022/07/22 05:25:47;;;;;;;1.25;1.15;;;23.20;53.50;;;;;;6197276;28;20035;-68
2022/07/22 05:28:47;;;;;;;1.75;1.00;;;23.20;53.60;;;;;;6185204;28;20027;-68
2022/07/22 05:31:48;;;;;;;1.40;1.20;;;23.20;53.60;;;;;;6173500;28;20022;-68
2022/07/22 05:34:48;;;;;;;1.15;1.05;;;23.20;53.50;;;;;;6192361;28;20629;-68
2022/07/22 05:37:49;;;;;;;1.15;1.02;;;23.20;53.60;;;;;;6193827;28;20034;-68
2022/07/22 05:40:50;;;;;;;1.58;1.30;;;23.20;53.60;;;;;;6188192;28;20030;-67
2022/07/22 05:43:50;;;;;;;1.30;1.20;;;23.20;53.60;;;;;;6186458;28;20027;-67
2022/07/22 05:46:51;;;;;;;1.20;1.10;;;23.20;53.60;;;;;;6172492;28;20478;-67
2022/07/22 05:49:52;;;;;;;1.23;1.13;;;23.20;53.60;;;;;;6188901;28;20073;-67
2022/07/22 05:52:52;;;;;;;1.10;1.00;;;23.20;53.60;;;;;;6193578;28;20037;-67
2022/07/22 05:55:53;;;;;;;1.10;1.00;;;23.20;53.60;;;;;;6192897;28;20034;-67
2022/07/22 05:58:55;;;;;;;1.45;1.10;;;23.20;53.60;;;;;;6193729;28;20125;-67
2022/07/22 06:01:56;;;;;;;1.15;1.05;;;23.20;53.60;;;;;;6196334;28;20050;-67
2022/07/22 06:04:56;;;;;;;0.80;0.80;;;23.20;53.60;;;;;;6196397;28;20457;-67
2022/07/22 06:07:57;;;;;;;1.35;1.10;;;23.20;53.60;;;;;;6196756;28;20081;-67
2022/07/22 06:10:59;;;;;;;1.33;1.13;;;23.20;53.60;;;;;;6196301;28;20153;-67
2022/07/22 06:13:59;;;;;;;1.02;1.00;;;23.20;53.60;;;;;;6188307;28;20081;-68
2022/07/22 06:17:00;;;;;;;1.17;1.00;;;23.20;53.60;;;;;;6172483;28;20035;-67
2022/07/22 06:20:01;;;;;;;1.20;1.10;;;23.20;53.60;;;;;;6186951;28;20037;-67
2022/07/22 06:23:01;;;;;;;1.50;1.17;;;23.20;53.60;;;;;;6196187;28;20358;-67
2022/07/22 06:26:03;;;;;;;2.22;1.17;;;23.20;53.60;;;;;;6190949;28;20026;-67
2022/07/22 06:29:03;;;;;;;3.00;1.20;;;23.20;53.60;;;;;;6196106;28;20027;-67
2022/07/22 06:32:04;;;;;;;1.40;1.08;;;23.20;53.60;;;;;;6194813;28;20034;-67
2022/07/22 06:35:05;;;;;;;1.13;1.00;;;23.20;53.60;;;;;;6181896;28;20545;-67
2022/07/22 06:38:07;;;;;;;1.50;1.30;;;23.20;53.60;;;;;;6172269;28;20042;-67
2022/07/22 06:41:07;;;;;;;1.80;1.17;;;23.20;53.60;;;;;;6170952;28;20049;-67
2022/07/22 06:44:08;;;;;;;1.38;1.27;;;23.20;53.60;;;;;;6175724;28;20085;-67
2022/07/22 06:47:09;;;;;;;1.30;1.10;;;23.20;53.60;;;;;;6195522;28;20089;-68
2022/07/22 06:50:10;;;;;;;1.30;1.13;;;23.20;53.60;;;;;;6183153;28;20062;-69
2022/07/22 06:53:11;;;;;;;1.58;1.10;;;23.20;53.60;;;;;;6171958;28;20478;-67
2022/07/22 06:56:11;;;;;;;1.65;1.20;;;23.20;53.70;;;;;;6194885;28;20651;-67
2022/07/22 06:59:12;;;;;;;1.25;1.15;;;23.20;53.60;;;;;;6191978;28;20027;-68
2022/07/22 07:02:13;;;;;;;1.67;1.50;;;23.20;53.60;;;;;;6171395;28;20450;-67
2022/07/22 07:05:14;;;;;;;1.52;1.20;;;23.20;53.60;;;;;;6181836;28;20121;-67
2022/07/22 07:08:14;;;;;;;1.58;1.40;;;23.20;53.60;;;;;;6195170;28;20048;-67
2022/07/22 07:11:15;;;;;;;3.83;1.15;;;23.20;53.70;;;;;;6176108;28;20058;-67
2022/07/22 07:14:16;;;;;;;1.20;1.10;;;23.20;53.60;;;;;;6172252;28;20036;-67
2022/07/22 07:17:16;;;;;;;1.27;1.17;;;23.20;53.70;;;;;;6194840;28;20065;-67
2022/07/22 07:20:18;;;;;;;1.23;1.10;;;23.20;53.60;;;;;;6185060;28;20426;-67
2022/07/22 07:23:18;;;;;;;1.50;1.30;;;23.20;53.70;;;;;;6185368;28;20275;-67
2022/07/22 07:26:19;;;;;;;1.10;1.00;;;23.20;53.70;;;;;;6190482;28;20047;-67
2022/07/22 07:29:20;;;;;;;1.10;1.00;;;23.20;53.70;;;;;;6194706;28;20028;-67
2022/07/22 07:32:20;;;;;;;1.17;1.08;;;23.20;53.70;;;;;;6170375;28;20038;-67
2022/07/22 07:35:21;;;;;;;1.33;1.23;;;23.20;53.70;;;;;;6177664;28;20022;-67
2022/07/22 07:38:22;;;;;;;1.38;1.02;;;23.20;53.70;;;;;;6194272;28;20026;-67
2022/07/22 07:41:22;;;;;;;1.33;1.10;;;23.20;53.70;;;;;;6190027;28;20143;-68
2022/07/22 07:44:23;;;;;;;1.23;1.10;;;23.20;53.70;;;;;;6194476;28;20046;-67
2022/07/22 07:47:24;;;;;;;1.15;1.05;;;23.20;53.70;;;;;;6171426;28;20328;-67
2022/07/22 07:50:25;;;;;;;1.33;1.20;;;23.20;53.70;;;;;;6175711;28;20054;-67
2022/07/22 07:53:26;;;;;;;1.13;1.02;;;23.20;53.70;;;;;;6194788;28;20026;-67
2022/07/22 07:56:27;;;;;;;1.35;1.00;;;23.20;53.70;;;;;;6176337;28;20026;-67
2022/07/22 07:59:27;;;;;;;1.17;1.02;;;23.20;53.70;;;;;;6194180;28;20045;-67
2022/07/22 08:02:28;;;;;;;0.93;0.93;;;23.20;53.80;;;;;;6172395;28;20027;-67
2022/07/22 08:05:29;;;;;;;1.15;1.00;;;23.20;53.70;;;;;;6174472;28;20033;-68
2022/07/22 08:08:29;;;;;;;1.30;1.13;;;23.20;53.80;;;;;;6193536;28;20027;-67
2022/07/22 08:11:30;;;;;;;1.08;0.98;;;23.20;53.70;;;;;;6181455;28;20030;-67
2022/07/22 08:14:31;;;;;;;0.95;0.85;;;23.20;53.80;;;;;;6169188;28;20054;-67
2022/07/22 08:17:33;;;;;;;1.35;1.13;;;23.20;53.80;;;;;;6188853;28;20037;-67
2022/07/22 08:20:34;;;;;;;1.38;0.98;;;23.20;53.80;;;;;;6190302;28;20030;-67
2022/07/22 08:23:35;;;;;;;1.23;1.00;;;23.20;53.80;;;;;;6169804;28;20406;-67
2022/07/22 08:26:36;;;;;;;1.73;1.13;;;23.20;53.70;;;;;;6180004;28;20073;-67
2022/07/22 08:29:36;;;;;;;0.80;0.80;;;23.20;53.80;;;;;;6193620;28;20101;-68
2022/07/22 08:32:37;;;;;;;1.05;0.93;;;23.20;53.80;;;;;;6174723;28;20061;-67
2022/07/22 08:35:38;;;;;;;1.10;1.00;;;23.20;53.80;;;;;;6170557;28;20027;-67
2022/07/22 08:38:39;;;;;;;0.88;0.88;;;23.20;53.80;;;;;;6193519;28;20049;-67
2022/07/22 08:41:39;;;;;;;1.92;1.00;;;23.20;53.80;;;;;;6180495;28;20026;-67
2022/07/22 08:44:40;;;;;;;1.00;0.90;;;23.20;53.80;;;;;;6193387;28;20101;-67
2022/07/22 08:47:47;;;;;;;1.13;0.90;;;23.20;53.80;;;;;;6176125;28;20026;-67
2022/07/22 08:50:48;;;;;;;1.08;0.98;;;23.20;53.80;;;;;;6170111;28;20064;-68
2022/07/22 08:53:49;;;;;;;2.35;1.10;;;23.20;53.80;;;;;;6193032;28;20042;-67
2022/07/22 08:56:51;;;;;;;0.93;0.82;;;23.20;53.80;;;;;;6183925;28;20035;-68
2022/07/22 08:59:58;;;;;;;1.20;1.10;;;23.20;53.80;;;;;;6169284;28;20035;-67
2022/07/22 09:02:59;;;;;;;1.20;1.10;;;23.20;54.50;;;;;;6186267;28;20019;-67
2022/07/22 09:06:00;;;;;;;1.10;1.00;;;23.20;53.80;;;;;;6192100;28;20388;-67
2022/07/22 09:09:05;;;;;;;1.10;1.00;;;23.20;53.80;;;;;;6168699;28;20023;-67
2022/07/22 09:12:07;;;;;;;2.03;1.30;;;23.20;53.80;;;;;;6177897;28;20414;-68
2022/07/22 09:15:08;;;;;;;0.80;0.80;;;23.20;53.80;;;;;;6192850;28;20030;-67
2022/07/22 09:18:09;;;;;;;0.98;0.90;;;23.20;53.80;;;;;;6176327;28;20182;-67
2022/07/22 09:21:13;;;;;;;1.15;0.90;;;23.20;53.80;;;;;;6169347;28;20035;-68
2022/07/22 09:24:31;;;;;;;0.85;0.82;;;23.20;53.80;;;;;;6192952;28;20027;-67
2022/07/22 09:27:32;;;;;;;1.00;0.90;;;23.20;53.80;;;;;;6192235;28;20136;-67
2022/07/22 09:30:56;;;;;;;1.20;1.10;;;23.20;53.80;;;;;;6188289;28;20033;-67
2022/07/22 09:33:58;;;;;;;1.17;1.08;;;23.20;53.80;;;;;;6166870;28;20359;-67
2022/07/22 09:37:00;;;;;;;1.10;1.00;;;23.20;53.90;;;;;;6192400;28;20030;-68
2022/07/22 09:40:18;;;;;;;1.10;1.00;;;23.20;53.90;;;;;;6181939;28;20429;-67
2022/07/22 09:43:20;;;;;;;0.95;0.90;;;23.20;53.90;;;;;;6182263;28;20027;-67
2022/07/22 09:46:36;;;;;;;0.98;0.80;;;23.20;53.90;;;;;;6171241;28;20022;-67
2022/07/22 09:49:39;;;;;;;1.20;1.02;;;23.20;53.90;;;;;;6197084;28;20084;-67
2022/07/22 09:52:42;;;;;;;1.17;0.90;;;23.20;53.90;;;;;;6188429;28;20030;-67
2022/07/22 09:55:42;;;;;;;1.00;0.90;;;23.20;53.90;;;;;;6193099;28;20547;-67
2022/07/22 09:58:43;;;;;;;1.33;1.10;;;23.20;53.90;;;;;;6196695;28;20038;-67
2022/07/22 10:01:44;;;;;;;0.93;0.90;;;23.20;53.90;;;;;;6197568;28;20061;-67
2022/07/22 10:04:46;;;;;;;0.73;0.73;;;23.20;53.90;;;;;;6173039;28;20158;-67
2022/07/22 10:07:49;;;;;;;1.27;1.10;;;23.20;53.90;;;;;;6179508;28;20014;-67
2022/07/22 10:10:51;;;;;;;0.75;0.75;;;23.20;53.90;;;;;;6196317;28;20432;-67
2022/07/22 10:13:52;;;;;;;0.70;0.70;;;23.20;53.90;;;;;;6180901;28;20786;-67
2022/07/22 10:16:53;;;;;;;0.80;0.80;;;23.20;53.90;;;;;;6171631;28;20037;-67
2022/07/22 10:19:54;;;;;;;1.10;1.00;;;23.20;53.90;;;;;;6194728;28;20105;-67
2022/07/22 10:23:00;;;;;;;0.77;0.77;;;23.20;53.90;;;;;;6189836;28;20098;-67
2022/07/22 10:26:03;;;;;;;1.00;0.90;;;23.20;53.90;;;;;;6171366;28;20101;-67
2022/07/22 10:29:28;;;;;;;1.00;0.90;;;23.20;53.90;;;;;;6186278;28;20481;-67
2022/07/22 10:32:28;;;;;;;1.20;1.10;;;23.20;53.90;;;;;;6194166;28;20096;-67
2022/07/22 10:35:29;;;;;;;0.93;0.82;;;23.20;54.00;;;;;;6171967;28;20270;-67
2022/07/22 10:38:31;;;;;;;1.10;1.00;;;23.20;53.90;;;;;;6179371;28;20113;-67
2022/07/22 10:41:41;;;;;;;1.08;0.95;;;23.20;53.90;;;;;;6174684;28;20404;-68
2022/07/22 10:44:48;;;;;;;0.88;0.85;;;23.20;53.90;;;;;;6187860;28;20023;-67
2022/07/22 10:47:54;;;;;;;0.82;0.82;;;23.20;54.00;;;;;;6193218;28;20409;-67
2022/07/22 10:51:06;;;;;;;1.10;0.90;;;23.20;53.90;;;;;;6171182;28;20505;-68
2022/07/22 10:54:06;;;;;;;0.75;0.70;;;23.20;54.00;;;;;;6182495;28;20018;-67
2022/07/22 10:57:07;;;;;;;0.77;0.77;;;23.20;54.00;;;;;;6194911;28;20026;-68
2022/07/22 11:00:08;;;;;;;0.70;0.68;;;23.20;54.00;;;;;;6195296;28;20146;-67
2022/07/22 11:03:09;;;;;;;1.23;0.82;;;23.20;54.00;;;;;;6194715;28;20050;-68
2022/07/22 11:06:19;;;;;;;1.23;0.70;;;23.20;54.00;;;;;;6195041;28;20404;-67
2022/07/22 11:09:22;;;;;;;0.82;0.80;;;23.20;54.00;;;;;;6183476;28;20073;-67
2022/07/22 11:12:22;;;;;;;0.70;0.70;;;23.20;54.00;;;;;;6170901;28;20386;-67
2022/07/22 11:15:27;;;;;;;0.90;0.85;;;23.20;54.00;;;;;;6189840;28;20030;-67
2022/07/22 11:18:47;;;;;;;1.33;1.03;;;23.20;54.00;;;;;;6191648;28;20026;-67
2022/07/22 11:21:54;;;;;;;1.40;1.00;;;23.20;54.00;;;;;;6170910;28;20283;-67
2022/07/22 11:24:54;;;;;;;0.95;0.85;;;23.20;54.00;;;;;;6184575;28;20035;-68
2022/07/22 11:27:57;;;;;;;0.98;0.93;;;23.20;54.00;;;;;;6194318;28;20255;-67
2022/07/22 11:31:06;;;;;;;1.00;0.90;;;23.20;54.00;;;;;;6186710;28;20057;-67
2022/07/22 11:34:09;;;;;;;0.73;0.73;;;23.20;54.00;;;;;;6176565;28;20057;-68
2022/07/22 11:37:09;;;;;;;0.80;0.80;;;23.20;54.00;;;;;;6194018;28;20027;-67
2022/07/22 11:40:11;;;;;;;1.05;0.90;;;23.10;53.90;;;;;;6190304;28;20508;-68
2022/07/22 11:43:11;;;;;;;0.80;0.80;;;23.20;54.00;;;;;;6193619;28;20088;-67
2022/07/22 11:46:13;;;;;;;0.95;0.80;;;23.20;54.00;;;;;;6172559;28;20022;-67
2022/07/22 11:49:17;;;;;;;0.75;0.75;;;23.20;54.00;;;;;;6174806;28;20050;-67
2022/07/22 11:52:18;;;;;;;0.80;0.77;;;23.20;54.10;;;;;;6194228;28;20033;-67
2022/07/22 11:55:18;;;;;;;1.70;0.90;;;23.20;54.10;;;;;;6193430;28;20022;-67
2022/07/22 11:58:33;;;;;;;0.70;0.70;;;23.20;54.10;;;;;;6193697;28;20113;-67
2022/07/22 12:01:36;;;;;;;0.88;0.68;;;23.20;54.10;;;;;;6194118;28;20392;-67
2022/07/22 12:04:37;;;;;;;1.15;0.80;;;23.20;54.10;;;;;;6184764;28;20031;-67
2022/07/22 12:07:38;;;;;;;0.80;0.80;;;23.20;54.10;;;;;;6169016;28;20030;-68
2022/07/22 12:10:39;;;;;;;0.95;0.80;;;23.10;54.00;;;;;;6183447;28;20449;-67
2022/07/22 12:13:46;;;;;;;0.60;0.60;;;23.20;54.10;;;;;;6192250;28;20026;-68
2022/07/22 12:17:14;;;;;;;0.70;0.70;;;23.20;54.10;;;;;;6171196;28;20035;-67
2022/07/22 12:20:14;;;;;;;0.98;0.80;;;23.20;54.10;;;;;;6177053;28;20042;-67
2022/07/22 12:23:15;;;;;;;0.73;0.60;;;23.20;54.10;;;;;;6193578;28;20025;-67
2022/07/22 12:26:16;;;;;;;0.63;0.60;;;23.20;54.10;;;;;;6176512;28;20201;-67
2022/07/22 12:29:18;;;;;;;1.60;0.80;;;23.20;54.10;;;;;;6168986;28;20030;-67
2022/07/22 12:32:22;;;;;;;0.70;0.60;;;23.20;54.10;;;;;;6193119;28;20034;-67
2022/07/22 12:35:22;;;;;;;0.90;0.80;;;23.20;54.10;;;;;;6185124;28;20438;-67
2022/07/22 12:38:23;;;;;;;0.77;0.77;;;23.20;54.10;;;;;;6168997;28;20057;-67
2022/07/22 12:41:29;;;;;;;0.77;0.77;;;23.20;54.10;;;;;;6173069;28;20019;-67
2022/07/22 12:44:30;;;;;;;0.98;0.80;;;23.10;54.10;;;;;;6169119;28;20035;-67
2022/07/22 12:47:54;;;;;;;0.93;0.75;;;23.20;54.10;;;;;;6193014;28;20097;-67
2022/07/22 12:50:57;;;;;;;0.60;0.60;;;23.20;54.10;;;;;;6182683;28;20207;-67
2022/07/22 12:53:58;;;;;;;0.70;0.70;;;23.20;54.10;;;;;;6175107;28;20041;-68
2022/07/22 12:56:59;;;;;;;0.70;0.68;;;23.20;54.10;;;;;;6193006;28;20030;-67
2022/07/22 13:00:00;;;;;;;0.95;0.80;;;23.20;54.10;;;;;;6191032;28;20097;-67
2022/07/22 13:03:01;;;;;;;0.80;0.80;;;23.20;54.20;;;;;;6168848;28;20104;-67
2022/07/22 13:06:04;;;;;;;0.85;0.77;;;23.20;54.20;;;;;;6177819;28;20034;-67
2022/07/22 13:09:06;;;;;;;0.80;0.80;;;23.20;54.20;;;;;;6195442;28;20046;-67
2022/07/22 13:12:06;;;;;;;0.77;0.60;;;23.10;54.10;;;;;;6180067;28;20019;-67
2022/07/22 13:15:07;;;;;;;0.70;0.70;;;23.20;54.20;;;;;;6174180;28;20225;-68
2022/07/22 13:18:08;;;;;;;0.70;0.68;;;23.20;54.20;;;;;;6197375;28;20100;-68
2022/07/22 13:21:09;;;;;;;0.70;0.70;;;23.20;54.20;;;;;;6189127;28;20510;-68
2022/07/22 13:24:11;;;;;;;0.70;0.70;;;23.20;54.20;;;;;;6175602;28;20042;-68
2022/07/22 13:27:12;;;;;;;0.60;0.60;;;23.20;54.20;;;;;;6197980;28;20034;-68
2022/07/22 13:30:13;;;;;;;0.70;0.70;;;23.20;54.20;;;;;;6196855;28;20033;-68
2022/07/22 13:33:16;;;;;;;0.70;0.70;;;23.20;54.20;;;;;;6173701;28;20561;-68
2022/07/22 13:36:16;;;;;;;0.80;0.70;;;23.10;54.10;;;;;;6180126;28;20053;-68
2022/07/22 13:39:17;;;;;;;1.00;0.90;;;23.20;54.20;;;;;;6194120;28;20046;-68
2022/07/22 13:42:19;;;;;;;0.70;0.70;;;23.20;54.20;;;;;;6187748;28;20114;-67
2022/07/22 13:45:20;;;;;;;0.70;0.70;;;23.20;54.20;;;;;;6197365;28;20037;-67
2022/07/22 13:48:20;;;;;;;0.77;0.77;;;23.20;54.20;;;;;;6195562;28;20056;-68
2022/07/22 13:51:21;;;;;;;0.60;0.60;;;23.20;54.20;;;;;;6196807;28;20366;-68
2022/07/22 13:54:21;;;;;;;0.70;0.70;;;23.20;54.90;;;;;;6196623;28;20105;-67
2022/07/22 13:57:22;;;;;;;0.70;0.70;;;23.10;54.10;;;;;;6196471;28;20034;-67
2022/07/22 14:00:23;;;;;;;0.80;0.70;;;23.20;54.20;;;;;;6196271;28;20018;-67
2022/07/22 14:03:24;;;;;;;0.60;0.60;;;23.20;54.20;;;;;;6196691;28;20517;-67
2022/07/22 14:06:25;;;;;;;0.77;0.77;;;23.20;54.20;;;;;;6192094;28;20021;-67
2022/07/22 14:09:25;;;;;;;0.57;0.57;;;23.20;54.20;;;;;;6172341;28;20023;-67
2022/07/22 14:12:26;;;;;;;0.70;0.70;;;23.20;54.20;;;;;;6183813;28;20056;-68
2022/07/22 14:15:26;;;;;;;0.80;0.75;;;23.10;54.10;;;;;;6196225;28;20121;-67
2022/07/22 14:18:27;;;;;;;0.82;0.82;;;23.20;54.20;;;;;;6176762;28;20621;-67
2022/07/22 14:21:28;;;;;;;0.60;0.60;;;23.20;54.30;;;;;;6174245;28;21963;-67
2022/07/22 14:24:29;;;;;;;0.60;0.60;;;23.20;54.30;;;;;;6196549;28;20041;-67
2022/07/22 14:27:29;;;;;;;0.68;0.68;;;23.20;54.30;;;;;;6186244;28;20062;-68
2022/07/22 14:30:31;;;;;;;0.70;0.70;;;23.10;54.20;;;;;;6172377;28;20507;-67
2022/07/22 14:33:31;;;;;;;0.73;0.73;;;23.20;54.30;;;;;;6189540;28;20037;-67
2022/07/22 14:36:33;;;;;;;0.50;0.50;;;23.10;54.20;;;;;;6194640;28;20027;-68
2022/07/22 14:39:34;;;;;;;0.60;0.60;;;23.20;54.30;;;;;;6176142;28;20041;-68
2022/07/22 14:42:35;;;;;;;0.70;0.70;;;23.20;54.30;;;;;;6187060;28;20062;-67
2022/07/22 14:45:35;;;;;;;0.95;0.70;;;23.20;54.30;;;;;;6171356;28;20023;-67
2022/07/22 14:48:37;;;;;;;0.68;0.60;;;23.20;54.30;;;;;;6187672;28;20046;-67
2022/07/22 14:51:39;;;;;;;0.57;0.57;;;23.20;54.30;;;;;;6195197;28;20058;-67
2022/07/22 14:54:39;;;;;;;0.60;0.60;;;23.20;54.30;;;;;;6194875;28;20509;-67
2022/07/22 14:57:40;;;;;;;0.70;0.70;;;23.20;54.30;;;;;;6195126;28;20465;-67
2022/07/22 15:00:41;;;;;;;0.55;0.55;;;23.20;54.30;;;;;;6194911;28;20041;-67
2022/07/22 15:03:41;;;;;;;0.65;0.60;;;23.20;54.30;;;;;;6180171;28;20393;-68
2022/07/22 15:06:42;;;;;;;0.60;0.60;;;23.10;54.20;;;;;;6171140;28;20560;-67
2022/07/22 15:09:43;;;;;;;1.00;0.70;;;23.20;54.30;;;;;;6193368;28;20023;-67
2022/07/22 15:12:43;;;;;;;0.70;0.70;;;23.20;54.30;;;;;;6189015;28;20019;-67
2022/07/22 15:15:44;;;;;;;0.65;0.65;;;23.20;54.30;;;;;;6170790;28;20486;-68
2022/07/22 15:18:45;;;;;;;1.08;0.75;;;23.20;54.40;;;;;;6184170;28;20117;-67
2022/07/22 15:21:47;;;;;;;0.70;0.70;;;23.20;54.30;;;;;;6194850;28;20018;-67
2022/07/22 15:24:47;;;;;;;0.50;0.50;;;23.20;54.40;;;;;;6181214;28;20038;-67
2022/07/22 15:27:49;;;;;;;0.82;0.80;;;23.10;54.20;;;;;;6194700;28;20624;-68
2022/07/22 15:30:50;;;;;;;1.00;0.80;;;23.20;54.30;;;;;;6193921;28;20485;-68
2022/07/22 15:33:50;;;;;;;0.90;0.75;;;23.10;54.20;;;;;;6176828;28;20085;-67
2022/07/22 15:36:51;;;;;;;0.55;0.55;;;23.20;54.40;;;;;;6194410;28;20041;-68
2022/07/22 15:39:52;;;;;;;0.82;0.70;;;23.20;54.30;;;;;;6187094;28;20706;-67
2022/07/22 15:42:52;;;;;;;0.70;0.70;;;23.20;54.40;;;;;;6172765;28;20045;-67
2022/07/22 15:45:53;;;;;;;0.60;0.60;;;23.20;54.30;;;;;;6194122;28;20061;-67